createdAt,value
2019-01-11T00:00:16.658Z,8.23
2019-01-11T00:00:55.892Z,7.93
2019-01-11T00:01:34.153Z,8.13
2019-01-11T00:02:09.551Z,7.87
2019-01-11T00:02:44.952Z,8.67
2019-01-11T00:03:20.640Z,7.50
2019-01-11T00:03:56.346Z,7.37
2019-01-11T00:04:31.840Z,7.23
2019-01-11T00:05:07.352Z,7.73
2019-01-11T00:05:42.752Z,7.97
2019-01-11T00:06:18.142Z,7.57
2019-01-11T00:06:53.612Z,7.90
2019-01-11T00:07:29.237Z,7.03
2019-01-11T00:08:05.613Z,8.07
2019-01-11T00:08:41.107Z,8.07
2019-01-11T00:09:17.235Z,8.27
2019-01-11T00:09:52.869Z,7.77
2019-01-11T00:10:28.506Z,7.77
2019-01-11T00:11:04.004Z,8.43
2019-01-11T00:11:39.402Z,8.13
2019-01-11T00:12:14.802Z,7.37
2019-01-11T00:12:50.446Z,7.37
2019-01-11T00:13:26.092Z,7.70
2019-01-11T00:14:02.435Z,8.57
2019-01-11T00:14:38.134Z,7.30
2019-01-11T00:15:13.620Z,7.57
2019-01-11T00:15:49.126Z,8.10
2019-01-11T00:16:24.550Z,7.77
2019-01-11T00:17:00.308Z,7.47
2019-01-11T00:17:35.885Z,7.20
2019-01-11T00:18:11.275Z,7.27
2019-01-11T00:18:46.945Z,7.57
2019-01-11T00:19:22.463Z,7.30
2019-01-11T00:20:03.549Z,7.00
2019-01-11T00:20:34.951Z,7.23
2019-01-11T00:21:10.583Z,7.80
2019-01-11T00:21:46.008Z,8.13
2019-01-11T00:22:21.494Z,7.83
2019-01-11T00:22:56.866Z,7.17
2019-01-11T00:23:32.283Z,7.23
2019-01-11T00:24:07.824Z,6.90
2019-01-11T00:24:43.212Z,6.87
2019-01-11T00:25:18.635Z,7.03
2019-01-11T00:25:54.007Z,7.20
2019-01-11T00:26:29.418Z,6.83
2019-01-11T00:27:05.434Z,6.80
2019-01-11T00:27:40.843Z,7.03
2019-01-11T00:28:16.236Z,7.20
2019-01-11T00:28:51.655Z,6.50
2019-01-11T00:29:27.072Z,6.90
2019-01-11T00:30:02.533Z,6.40
2019-01-11T00:30:37.861Z,6.73
2019-01-11T00:31:13.513Z,6.87
2019-01-11T00:31:48.950Z,5.70
2019-01-11T00:32:24.878Z,6.57
2019-01-11T00:33:00.270Z,5.83
2019-01-11T00:33:35.675Z,6.23
2019-01-11T00:34:11.073Z,6.20
2019-01-11T00:34:46.467Z,5.93
2019-01-11T00:35:21.858Z,5.93
2019-01-11T00:35:57.517Z,5.50
2019-01-11T00:36:33.220Z,5.87
2019-01-11T00:37:08.656Z,6.27
2019-01-11T00:37:44.328Z,5.60
2019-01-11T00:38:19.734Z,5.20
2019-01-11T00:38:55.114Z,5.70
2019-01-11T00:39:30.599Z,5.80
2019-01-11T00:40:06.592Z,5.20
2019-01-11T00:40:41.996Z,5.73
2019-01-11T00:41:17.676Z,5.47
2019-01-11T00:41:53.118Z,4.97
2019-01-11T00:42:28.926Z,4.80
2019-01-11T00:43:04.327Z,5.97
2019-01-11T00:43:39.986Z,5.37
2019-01-11T00:44:15.957Z,5.70
2019-01-11T00:44:51.390Z,5.43
2019-01-11T00:45:27.275Z,5.77
2019-01-11T00:46:02.677Z,5.00
2019-01-11T00:46:38.106Z,4.83
2019-01-11T00:47:13.776Z,4.87
2019-01-11T00:47:49.254Z,5.33
2019-01-11T00:48:25.001Z,5.43
2019-01-11T00:49:00.462Z,5.40
2019-01-11T00:49:36.100Z,5.53
2019-01-11T00:50:11.587Z,5.20
2019-01-11T00:50:47.234Z,5.47
2019-01-11T00:51:22.635Z,5.77
2019-01-11T00:51:58.286Z,5.30
2019-01-11T00:52:33.677Z,5.87
2019-01-11T00:53:09.061Z,5.10
2019-01-11T00:53:44.683Z,5.10
2019-01-11T00:54:20.088Z,5.43
2019-01-11T00:54:55.738Z,6.10
2019-01-11T00:55:31.679Z,5.40
2019-01-11T00:56:07.074Z,5.20
2019-01-11T00:56:42.463Z,4.83
2019-01-11T00:57:17.883Z,4.60
2019-01-11T00:57:53.538Z,5.07
2019-01-11T00:58:28.930Z,5.50
2019-01-11T00:59:04.754Z,5.47
2019-01-11T00:59:40.137Z,5.40
2019-01-11T01:00:18.373Z,5.33
2019-01-11T01:00:53.772Z,5.30
2019-01-11T01:01:29.170Z,5.90
2019-01-11T01:02:04.734Z,5.70
2019-01-11T01:02:40.397Z,5.50
2019-01-11T01:03:15.800Z,6.03
2019-01-11T01:03:51.208Z,6.00
2019-01-11T01:04:26.914Z,6.00
2019-01-11T01:05:02.373Z,5.67
2019-01-11T01:05:38.009Z,6.10
2019-01-11T01:06:13.547Z,5.47
2019-01-11T01:06:49.193Z,4.93
2019-01-11T01:07:24.830Z,5.10
2019-01-11T01:08:00.201Z,5.83
2019-01-11T01:08:35.616Z,5.87
2019-01-11T01:09:11.026Z,5.60
2019-01-11T01:09:46.495Z,6.87
2019-01-11T01:10:23.032Z,6.17
2019-01-11T01:10:59.488Z,6.40
2019-01-11T01:11:35.109Z,6.60
2019-01-11T01:12:10.875Z,6.47
2019-01-11T01:12:46.310Z,7.37
2019-01-11T01:13:21.722Z,7.13
2019-01-11T01:13:57.457Z,6.83
2019-01-11T01:14:33.117Z,6.20
2019-01-11T01:15:11.376Z,6.40
2019-01-11T01:15:47.007Z,6.97
2019-01-11T01:16:22.485Z,6.77
2019-01-11T01:16:58.120Z,7.00
2019-01-11T01:17:34.137Z,7.23
2019-01-11T01:18:09.895Z,7.20
2019-01-11T01:18:45.269Z,7.67
2019-01-11T01:19:20.671Z,7.40
2019-01-11T01:19:56.212Z,7.00
2019-01-11T01:20:31.595Z,6.93
2019-01-11T01:21:06.996Z,7.03
2019-01-11T01:21:42.405Z,6.47
2019-01-11T01:22:18.062Z,7.47
2019-01-11T01:22:53.760Z,6.83
2019-01-11T01:23:29.328Z,6.83
2019-01-11T01:24:05.071Z,6.70
2019-01-11T01:24:40.525Z,6.90
2019-01-11T01:25:16.034Z,7.30
2019-01-11T01:25:51.408Z,7.27
2019-01-11T01:26:26.807Z,6.40
2019-01-11T01:27:02.228Z,7.17
2019-01-11T01:27:37.690Z,7.17
2019-01-11T01:28:13.851Z,7.07
2019-01-11T01:28:49.876Z,7.47
2019-01-11T01:29:25.337Z,6.77
2019-01-11T01:30:00.695Z,6.97
2019-01-11T01:30:36.099Z,7.03
2019-01-11T01:31:11.515Z,7.33
2019-01-11T01:31:46.930Z,6.97
2019-01-11T01:32:22.332Z,6.53
2019-01-11T01:32:57.779Z,6.33
2019-01-11T01:33:33.192Z,6.23
2019-01-11T01:34:08.578Z,6.47
2019-01-11T01:34:43.974Z,7.10
2019-01-11T01:35:19.746Z,7.20
2019-01-11T01:35:55.447Z,6.93
2019-01-11T01:36:30.878Z,7.63
2019-01-11T01:37:06.410Z,6.97
2019-01-11T01:37:42.138Z,7.50
2019-01-11T01:38:17.844Z,7.00
2019-01-11T01:38:53.296Z,6.60
2019-01-11T01:39:28.952Z,7.37
2019-01-11T01:40:05.344Z,6.83
2019-01-11T01:40:40.743Z,7.13
2019-01-11T01:41:16.168Z,6.80
2019-01-11T01:41:51.580Z,7.07
2019-01-11T01:42:26.987Z,7.40
2019-01-11T01:43:02.420Z,7.67
2019-01-11T01:43:37.821Z,7.50
2019-01-11T01:44:13.482Z,7.33
2019-01-11T01:44:48.913Z,6.73
2019-01-11T01:45:24.307Z,6.87
2019-01-11T01:45:59.722Z,6.53
2019-01-11T01:46:35.153Z,7.20
2019-01-11T01:47:10.827Z,7.30
2019-01-11T01:47:46.486Z,6.77
2019-01-11T01:48:21.932Z,6.73
2019-01-11T01:48:57.659Z,6.73
2019-01-11T01:49:33.049Z,7.10
2019-01-11T01:50:09.399Z,6.33
2019-01-11T01:50:45.078Z,6.93
2019-01-11T01:51:20.489Z,6.67
2019-01-11T01:51:55.901Z,6.43
2019-01-11T01:52:31.289Z,6.77
2019-01-11T01:53:06.720Z,6.93
2019-01-11T01:53:42.158Z,7.37
2019-01-11T01:54:17.698Z,6.87
2019-01-11T01:54:53.180Z,6.93
2019-01-11T01:55:28.821Z,6.83
2019-01-11T01:56:04.209Z,7.00
2019-01-11T01:56:39.979Z,7.40
2019-01-11T01:57:15.631Z,6.83
2019-01-11T01:57:51.102Z,6.93
2019-01-11T01:58:26.782Z,6.43
2019-01-11T01:59:02.197Z,7.00
2019-01-11T01:59:37.828Z,6.77
2019-01-11T02:00:16.121Z,6.10
2019-01-11T02:00:51.536Z,6.57
2019-01-11T02:01:27.166Z,6.77
2019-01-11T02:02:02.870Z,7.20
2019-01-11T02:02:38.256Z,7.53
2019-01-11T02:03:13.685Z,6.43
2019-01-11T02:03:49.093Z,7.03
2019-01-11T02:04:24.811Z,7.10
2019-01-11T02:05:00.235Z,6.43
2019-01-11T02:05:35.607Z,6.67
2019-01-11T02:06:11.105Z,6.73
2019-01-11T02:06:46.769Z,6.30
2019-01-11T02:07:22.157Z,6.47
2019-01-11T02:07:58.036Z,7.27
2019-01-11T02:08:33.420Z,7.10
2019-01-11T02:09:09.688Z,7.07
2019-01-11T02:09:45.120Z,7.17
2019-01-11T02:10:20.866Z,6.80
2019-01-11T02:10:56.779Z,7.33
2019-01-11T02:11:32.175Z,7.03
2019-01-11T02:12:07.579Z,7.20
2019-01-11T02:12:43.367Z,7.03
2019-01-11T02:13:18.793Z,7.10
2019-01-11T02:13:54.262Z,7.20
2019-01-11T02:14:29.666Z,7.50
2019-01-11T02:15:06.073Z,7.23
2019-01-11T02:15:41.509Z,7.27
2019-01-11T02:16:17.023Z,6.40
2019-01-11T02:16:52.654Z,7.13
2019-01-11T02:17:28.284Z,6.43
2019-01-11T02:18:04.124Z,6.80
2019-01-11T02:18:39.634Z,7.07
2019-01-11T02:19:15.073Z,6.83
2019-01-11T02:19:50.712Z,6.40
2019-01-11T02:20:26.099Z,7.20
2019-01-11T02:21:01.628Z,6.53
2019-01-11T02:21:37.264Z,7.70
2019-01-11T02:22:12.755Z,6.93
2019-01-11T02:22:48.431Z,6.40
2019-01-11T02:23:24.099Z,7.20
2019-01-11T02:23:59.546Z,6.60
2019-01-11T02:24:34.996Z,6.80
2019-01-11T02:25:10.791Z,6.60
2019-01-11T02:25:46.406Z,6.60
2019-01-11T02:26:21.781Z,6.80
2019-01-11T02:26:57.180Z,6.33
2019-01-11T02:27:32.855Z,6.77
2019-01-11T02:28:08.537Z,7.33
2019-01-11T02:28:43.934Z,7.00
2019-01-11T02:29:19.361Z,6.80
2019-01-11T02:29:55.102Z,6.93
2019-01-11T02:30:30.598Z,6.70
2019-01-11T02:31:06.047Z,6.60
2019-01-11T02:31:42.002Z,6.87
2019-01-11T02:32:17.737Z,6.87
2019-01-11T02:32:53.451Z,6.73
2019-01-11T02:33:28.815Z,7.03
2019-01-11T02:34:04.402Z,6.50
2019-01-11T02:34:39.848Z,7.27
2019-01-11T02:35:15.234Z,6.80
2019-01-11T02:35:50.635Z,6.10
2019-01-11T02:36:26.064Z,7.07
2019-01-11T02:37:01.494Z,6.60
2019-01-11T02:37:36.930Z,6.53
2019-01-11T02:38:12.330Z,6.43
2019-01-11T02:38:47.716Z,6.43
2019-01-11T02:39:23.167Z,6.27
2019-01-11T02:39:58.811Z,6.30
2019-01-11T02:40:34.587Z,6.70
2019-01-11T02:41:10.111Z,6.50
2019-01-11T02:41:45.494Z,6.03
2019-01-11T02:42:20.888Z,6.70
2019-01-11T02:42:56.275Z,6.47
2019-01-11T02:43:31.690Z,6.77
2019-01-11T02:44:07.081Z,6.80
2019-01-11T02:44:42.746Z,6.47
2019-01-11T02:45:19.953Z,6.40
2019-01-11T02:45:55.601Z,6.13
2019-01-11T02:46:30.995Z,5.97
2019-01-11T02:47:06.754Z,5.90
2019-01-11T02:47:42.158Z,6.77
2019-01-11T02:48:17.552Z,6.27
2019-01-11T02:48:52.993Z,7.23
2019-01-11T02:49:28.492Z,6.90
2019-01-11T02:50:05.217Z,6.60
2019-01-11T02:50:40.595Z,7.07
2019-01-11T02:51:15.989Z,5.67
2019-01-11T02:51:51.613Z,6.77
2019-01-11T02:52:27.017Z,6.57
2019-01-11T02:53:02.468Z,6.73
2019-01-11T02:53:37.868Z,6.80
2019-01-11T02:54:13.242Z,6.10
2019-01-11T02:54:48.659Z,6.83
2019-01-11T02:55:24.060Z,7.30
2019-01-11T02:55:59.442Z,6.53
2019-01-11T02:56:34.911Z,7.23
2019-01-11T02:57:10.607Z,6.87
2019-01-11T02:57:46.004Z,6.37
2019-01-11T02:58:21.948Z,6.33
2019-01-11T02:58:57.634Z,6.57
2019-01-11T02:59:33.748Z,6.17
2019-01-11T03:00:12.838Z,7.20
2019-01-11T03:00:48.339Z,6.60
2019-01-11T03:01:23.983Z,6.40
2019-01-11T03:01:59.378Z,6.17
2019-01-11T03:02:34.815Z,7.00
2019-01-11T03:03:10.202Z,7.37
2019-01-11T03:03:45.631Z,7.00
2019-01-11T03:04:21.917Z,6.97
2019-01-11T03:04:57.349Z,7.13
2019-01-11T03:05:32.756Z,7.10
2019-01-11T03:06:08.432Z,7.10
2019-01-11T03:06:43.832Z,7.07
2019-01-11T03:07:19.240Z,7.17
2019-01-11T03:07:54.895Z,7.00
2019-01-11T03:08:30.289Z,7.10
2019-01-11T03:09:07.376Z,7.23
2019-01-11T03:09:43.088Z,6.70
2019-01-11T03:10:20.497Z,7.37
2019-01-11T03:10:56.467Z,6.80
2019-01-11T03:11:31.871Z,7.40
2019-01-11T03:12:07.564Z,6.80
2019-01-11T03:12:42.962Z,7.27
2019-01-11T03:13:18.352Z,7.63
2019-01-11T03:13:53.737Z,7.23
2019-01-11T03:14:29.122Z,7.43
2019-01-11T03:15:06.500Z,7.23
2019-01-11T03:15:41.895Z,7.60
2019-01-11T03:16:17.288Z,7.10
2019-01-11T03:16:52.671Z,7.30
2019-01-11T03:17:28.309Z,7.17
2019-01-11T03:18:04.016Z,7.30
2019-01-11T03:18:39.435Z,7.17
2019-01-11T03:19:14.825Z,7.03
2019-01-11T03:19:50.546Z,6.97
2019-01-11T03:20:26.047Z,7.13
2019-01-11T03:21:01.501Z,7.27
2019-01-11T03:21:36.901Z,7.90
2019-01-11T03:22:12.373Z,7.47
2019-01-11T03:22:47.868Z,7.83
2019-01-11T03:23:23.525Z,8.13
2019-01-11T03:23:58.912Z,7.57
2019-01-11T03:24:34.314Z,7.23
2019-01-11T03:25:09.898Z,7.00
2019-01-11T03:25:45.574Z,7.07
2019-01-11T03:26:20.951Z,7.40
2019-01-11T03:26:56.439Z,7.00
2019-01-11T03:27:31.963Z,7.50
2019-01-11T03:28:07.633Z,7.00
2019-01-11T03:28:43.333Z,7.20
2019-01-11T03:29:18.721Z,6.90
2019-01-11T03:29:54.144Z,8.07
2019-01-11T03:30:29.566Z,7.17
2019-01-11T03:31:14.574Z,7.78
2019-01-11T03:31:49.956Z,7.47
2019-01-11T03:32:25.402Z,7.47
2019-01-11T03:33:00.778Z,7.93
2019-01-11T03:33:36.226Z,7.00
2019-01-11T03:34:11.895Z,7.60
2019-01-11T03:35:06.446Z,7.73
2019-01-11T03:35:42.130Z,7.50
2019-01-11T03:36:17.530Z,7.37
2019-01-11T03:36:52.937Z,7.33
2019-01-11T03:37:28.325Z,6.73
2019-01-11T03:38:03.729Z,7.53
2019-01-11T03:38:39.146Z,8.33
2019-01-11T03:39:14.536Z,7.70
2019-01-11T03:39:49.926Z,8.40
2019-01-11T03:40:26.370Z,7.87
2019-01-11T03:41:01.802Z,7.70
2019-01-11T03:41:49.399Z,7.60
2019-01-11T03:42:25.099Z,8.03
2019-01-11T03:43:00.776Z,7.73
2019-01-11T03:43:36.210Z,7.47
2019-01-11T03:44:11.592Z,7.97
2019-01-11T03:44:46.990Z,7.83
2019-01-11T03:45:24.096Z,7.73
2019-01-11T03:45:59.489Z,7.63
2019-01-11T03:46:34.935Z,8.70
2019-01-11T03:47:10.338Z,7.90
2019-01-11T03:47:45.728Z,7.80
2019-01-11T03:48:21.373Z,7.87
2019-01-11T03:48:57.149Z,8.50
2019-01-11T03:49:32.830Z,7.87
2019-01-11T03:50:09.086Z,8.33
2019-01-11T03:50:44.474Z,8.57
2019-01-11T03:51:19.877Z,8.80
2019-01-11T03:51:55.377Z,8.77
2019-01-11T03:52:30.759Z,8.23
2019-01-11T03:53:06.188Z,8.30
2019-01-11T03:53:41.589Z,8.23
2019-01-11T03:54:17.236Z,8.80
2019-01-11T03:54:52.729Z,8.00
2019-01-11T03:55:28.246Z,8.63
2019-01-11T03:56:03.723Z,8.60
2019-01-11T03:56:39.138Z,8.50
2019-01-11T03:57:14.527Z,8.47
2019-01-11T03:57:50.023Z,8.87
2019-01-11T03:58:25.427Z,7.80
2019-01-11T03:59:00.981Z,8.27
2019-01-11T03:59:36.397Z,8.87
2019-01-11T04:00:14.722Z,8.37
2019-01-11T04:00:50.108Z,7.90
2019-01-11T04:01:25.739Z,8.20
2019-01-11T04:02:01.153Z,8.30
2019-01-11T04:02:36.720Z,7.90
2019-01-11T04:03:12.142Z,8.37
2019-01-11T04:03:47.564Z,8.37
2019-01-11T04:04:23.204Z,8.53
2019-01-11T04:04:58.694Z,8.57
2019-01-11T04:05:34.231Z,9.20
2019-01-11T04:06:09.658Z,9.20
2019-01-11T04:06:45.149Z,8.20
2019-01-11T04:07:20.793Z,8.07
2019-01-11T04:07:56.188Z,8.87
2019-01-11T04:08:31.883Z,8.77
2019-01-11T04:09:10.335Z,8.17
2019-01-11T04:09:45.731Z,8.87
2019-01-11T04:10:26.979Z,9.27
2019-01-11T04:11:02.553Z,8.33
2019-01-11T04:11:38.232Z,8.47
2019-01-11T04:12:13.645Z,9.13
2019-01-11T04:12:49.040Z,9.43
2019-01-11T04:13:30.490Z,8.83
2019-01-11T04:14:01.935Z,8.53
2019-01-11T04:14:37.318Z,8.27
2019-01-11T04:15:13.465Z,7.97
2019-01-11T04:15:48.845Z,8.00
2019-01-11T04:16:24.206Z,8.00
2019-01-11T04:16:59.617Z,8.37
2019-01-11T04:17:35.031Z,8.53
2019-01-11T04:18:35.604Z,7.80
2019-01-11T04:19:15.530Z,8.13
2019-01-11T04:19:50.927Z,8.13
2019-01-11T04:20:26.323Z,8.87
2019-01-11T04:21:02.080Z,8.47
2019-01-11T04:21:37.460Z,8.63
2019-01-11T04:22:20.991Z,8.67
2019-01-11T04:22:57.509Z,9.20
2019-01-11T04:23:32.975Z,8.83
2019-01-11T04:24:08.406Z,9.47
2019-01-11T04:25:04.546Z,9.53
2019-01-11T04:25:42.201Z,9.13
2019-01-11T04:26:17.861Z,8.53
2019-01-11T04:26:53.503Z,9.03
2019-01-11T04:27:29.209Z,9.03
2019-01-11T04:28:05.698Z,9.47
2019-01-11T04:28:41.132Z,8.90
2019-01-11T04:29:19.609Z,9.03
2019-01-11T04:29:54.977Z,8.53
2019-01-11T04:30:30.354Z,9.87
2019-01-11T04:31:05.782Z,8.63
2019-01-11T04:31:41.215Z,9.33
2019-01-11T04:32:16.847Z,9.73
2019-01-11T04:32:52.259Z,9.20
2019-01-11T04:33:27.673Z,9.57
2019-01-11T04:34:03.484Z,8.77
2019-01-11T04:34:38.961Z,8.27
2019-01-11T04:35:14.349Z,9.20
2019-01-11T04:35:49.822Z,9.53
2019-01-11T04:36:25.205Z,9.40
2019-01-11T04:37:00.601Z,9.37
2019-01-11T04:37:36.106Z,9.17
2019-01-11T04:38:11.619Z,9.27
2019-01-11T04:38:47.049Z,8.87
2019-01-11T04:39:22.736Z,9.27
2019-01-11T04:39:58.539Z,8.73
2019-01-11T04:40:34.549Z,9.43
2019-01-11T04:41:10.017Z,9.57
2019-01-11T04:41:45.431Z,10.77
2019-01-11T04:42:20.805Z,10.03
2019-01-11T04:42:56.211Z,9.57
2019-01-11T04:43:31.613Z,10.40
2019-01-11T04:44:07.676Z,9.70
2019-01-11T04:44:43.373Z,9.87
2019-01-11T04:45:18.768Z,9.37
2019-01-11T04:45:54.154Z,9.97
2019-01-11T04:46:29.656Z,10.07
2019-01-11T04:47:05.118Z,9.77
2019-01-11T04:47:40.625Z,10.30
2019-01-11T04:48:16.094Z,9.50
2019-01-11T04:48:52.106Z,10.73
2019-01-11T04:49:27.522Z,9.57
2019-01-11T04:50:09.286Z,9.63
2019-01-11T04:50:40.078Z,10.17
2019-01-11T04:51:15.472Z,10.43
2019-01-11T04:51:51.124Z,11.40
2019-01-11T04:52:26.552Z,10.40
2019-01-11T04:53:02.014Z,10.23
2019-01-11T04:53:37.726Z,11.33
2019-01-11T04:54:13.159Z,10.97
2019-01-11T04:54:48.670Z,11.47
2019-01-11T04:55:24.053Z,11.73
2019-01-11T04:55:59.717Z,10.90
2019-01-11T04:56:35.180Z,11.20
2019-01-11T04:57:10.651Z,11.03
2019-01-11T04:57:46.035Z,10.67
2019-01-11T04:58:21.682Z,11.97
2019-01-11T04:58:57.344Z,11.07
2019-01-11T04:59:32.758Z,11.53
2019-01-11T05:00:17.106Z,11.83
2019-01-11T05:00:52.580Z,12.37
2019-01-11T05:01:27.994Z,11.90
2019-01-11T05:02:03.583Z,13.17
2019-01-11T05:02:39.039Z,11.43
2019-01-11T05:03:14.790Z,13.53
2019-01-11T05:03:50.436Z,12.00
2019-01-11T05:04:25.890Z,12.43
2019-01-11T05:05:01.573Z,13.03
2019-01-11T05:05:37.340Z,11.87
2019-01-11T05:06:12.763Z,13.57
2019-01-11T05:06:48.166Z,12.97
2019-01-11T05:07:23.599Z,13.50
2019-01-11T05:07:58.994Z,13.10
2019-01-11T05:08:34.587Z,12.93
2019-01-11T05:09:10.289Z,12.63
2019-01-11T05:09:45.744Z,12.97
2019-01-11T05:10:21.599Z,13.60
2019-01-11T05:10:57.268Z,13.40
2019-01-11T05:11:32.966Z,13.07
2019-01-11T05:12:08.371Z,13.03
2019-01-11T05:12:43.799Z,13.90
2019-01-11T05:13:30.258Z,12.90
2019-01-11T05:14:05.748Z,13.53
2019-01-11T05:14:41.178Z,13.13
2019-01-11T05:15:16.690Z,14.43
2019-01-11T05:15:52.708Z,12.73
2019-01-11T05:16:28.329Z,14.23
2019-01-11T05:17:03.877Z,14.53
2019-01-11T05:17:39.306Z,14.00
2019-01-11T05:18:14.730Z,14.80
2019-01-11T05:18:50.398Z,14.53
2019-01-11T05:19:25.911Z,14.87
2019-01-11T05:20:01.687Z,14.57
2019-01-11T05:20:37.151Z,15.37
2019-01-11T05:21:12.580Z,14.80
2019-01-11T05:21:47.998Z,14.47
2019-01-11T05:22:23.547Z,14.50
2019-01-11T05:22:58.970Z,14.33
2019-01-11T05:23:34.455Z,15.33
2019-01-11T05:24:09.912Z,14.73
2019-01-11T05:24:45.339Z,14.80
2019-01-11T05:25:20.850Z,14.83
2019-01-11T05:25:56.926Z,15.40
2019-01-11T05:26:32.966Z,14.53
2019-01-11T05:27:08.396Z,15.20
2019-01-11T05:27:43.797Z,15.67
2019-01-11T05:28:19.563Z,15.80
2019-01-11T05:28:55.311Z,15.93
2019-01-11T05:29:31.825Z,16.23
2019-01-11T05:30:10.875Z,15.37
2019-01-11T05:30:46.300Z,16.57
2019-01-11T05:31:21.748Z,17.37
2019-01-11T05:31:57.165Z,17.30
2019-01-11T05:32:32.598Z,16.57
2019-01-11T05:33:08.293Z,16.90
2019-01-11T05:33:43.714Z,17.13
2019-01-11T05:34:19.110Z,16.87
2019-01-11T05:34:54.552Z,17.23
2019-01-11T05:35:29.981Z,16.70
2019-01-11T05:36:05.644Z,17.83
2019-01-11T05:36:41.122Z,16.70
2019-01-11T05:37:16.585Z,17.20
2019-01-11T05:37:52.103Z,17.00
2019-01-11T05:38:27.524Z,17.30
2019-01-11T05:39:03.869Z,17.50
2019-01-11T05:39:39.594Z,17.63
2019-01-11T05:40:17.581Z,16.67
2019-01-11T05:40:53.128Z,17.83
2019-01-11T05:41:28.624Z,17.53
2019-01-11T05:42:04.628Z,18.07
2019-01-11T05:42:40.424Z,18.57
2019-01-11T05:43:16.178Z,17.33
2019-01-11T05:43:51.860Z,17.53
2019-01-11T05:44:27.672Z,17.53
2019-01-11T05:45:03.511Z,18.40
2019-01-11T05:45:38.953Z,17.87
2019-01-11T05:46:14.371Z,16.87
2019-01-11T05:46:49.770Z,17.30
2019-01-11T05:47:25.177Z,18.13
2019-01-11T05:48:00.580Z,17.57
2019-01-11T05:48:36.097Z,17.90
2019-01-11T05:49:11.786Z,17.87
2019-01-11T05:49:47.223Z,17.37
2019-01-11T05:50:24.329Z,17.47
2019-01-11T05:51:00.071Z,18.93
2019-01-11T05:51:35.570Z,17.90
2019-01-11T05:52:11.265Z,18.80
2019-01-11T05:52:46.740Z,18.23
2019-01-11T05:53:22.152Z,17.93
2019-01-11T05:53:57.555Z,17.70
2019-01-11T05:54:33.232Z,19.20
2019-01-11T05:55:10.628Z,18.87
2019-01-11T05:55:47.506Z,18.63
2019-01-11T05:56:22.893Z,18.40
2019-01-11T05:56:58.378Z,19.27
2019-01-11T05:57:33.793Z,18.77
2019-01-11T05:58:31.171Z,18.30
2019-01-11T05:59:09.816Z,19.57
2019-01-11T05:59:45.227Z,19.77
2019-01-11T06:00:20.672Z,19.57
2019-01-11T06:00:56.334Z,18.83
2019-01-11T06:01:32.003Z,19.87
2019-01-11T06:02:07.593Z,19.67
2019-01-11T06:02:43.732Z,19.97
2019-01-11T06:03:19.144Z,18.93
2019-01-11T06:03:54.801Z,20.30
2019-01-11T06:04:43.631Z,20.60
2019-01-11T06:05:19.075Z,20.23
2019-01-11T06:05:54.563Z,19.07
2019-01-11T06:06:48.943Z,20.37
2019-01-11T06:07:26.883Z,19.13
2019-01-11T06:08:08.932Z,19.83
2019-01-11T06:08:44.345Z,21.43
2019-01-11T06:09:19.769Z,21.37
2019-01-11T06:09:55.506Z,22.27
2019-01-11T06:10:30.987Z,20.77
2019-01-11T06:11:06.623Z,22.03
2019-01-11T06:11:42.281Z,22.10
2019-01-11T06:12:17.692Z,20.20
2019-01-11T06:12:53.082Z,21.40
2019-01-11T06:13:28.472Z,20.27
2019-01-11T06:14:04.030Z,21.20
2019-01-11T06:14:39.457Z,22.47
2019-01-11T06:15:14.845Z,22.10
2019-01-11T06:15:50.573Z,21.10
2019-01-11T06:16:26.010Z,21.77
2019-01-11T06:17:01.708Z,22.23
2019-01-11T06:17:37.166Z,20.53
2019-01-11T06:18:12.604Z,22.60
2019-01-11T06:18:48.085Z,21.77
2019-01-11T06:19:23.487Z,22.37
2019-01-11T06:19:58.880Z,21.90
2019-01-11T06:20:34.872Z,22.40
2019-01-11T06:21:10.291Z,21.73
2019-01-11T06:21:45.733Z,21.17
2019-01-11T06:22:21.151Z,22.10
2019-01-11T06:22:56.899Z,22.90
2019-01-11T06:23:32.619Z,21.37
2019-01-11T06:24:08.060Z,22.70
2019-01-11T06:24:43.458Z,23.10
2019-01-11T06:25:19.122Z,21.70
2019-01-11T06:25:54.499Z,22.17
2019-01-11T06:26:29.972Z,22.27
2019-01-11T06:27:05.671Z,22.77
2019-01-11T06:27:41.203Z,22.77
2019-01-11T06:28:16.600Z,22.03
2019-01-11T06:28:52.021Z,20.90
2019-01-11T06:29:27.687Z,23.13
2019-01-11T06:30:03.213Z,22.57
2019-01-11T06:30:38.907Z,21.87
2019-01-11T06:31:14.331Z,22.93
2019-01-11T06:31:50.035Z,22.70
2019-01-11T06:32:25.468Z,22.20
2019-01-11T06:33:00.864Z,22.60
2019-01-11T06:33:36.573Z,22.77
2019-01-11T06:34:12.069Z,23.00
2019-01-11T06:34:47.470Z,22.97
2019-01-11T06:35:22.859Z,21.73
2019-01-11T06:35:58.244Z,23.17
2019-01-11T06:36:33.728Z,23.37
2019-01-11T06:37:09.167Z,21.27
2019-01-11T06:37:44.586Z,23.10
2019-01-11T06:38:20.082Z,22.90
2019-01-11T06:38:55.527Z,21.77
2019-01-11T06:39:31.008Z,22.77
2019-01-11T06:40:07.334Z,22.13
2019-01-11T06:40:42.764Z,23.83
2019-01-11T06:41:18.170Z,21.27
2019-01-11T06:41:56.495Z,23.83
2019-01-11T06:42:31.924Z,23.77
2019-01-11T06:43:07.389Z,22.93
2019-01-11T06:43:44.679Z,24.73
2019-01-11T06:44:20.091Z,23.57
2019-01-11T06:44:55.695Z,23.23
2019-01-11T06:45:31.101Z,23.53
2019-01-11T06:46:06.601Z,23.27
2019-01-11T06:46:42.068Z,23.50
2019-01-11T06:47:18.532Z,22.53
2019-01-11T06:47:54.136Z,22.63
2019-01-11T06:48:40.603Z,22.70
2019-01-11T06:49:17.302Z,21.70
2019-01-11T06:49:52.627Z,22.13
2019-01-11T06:50:28.126Z,24.63
2019-01-11T06:51:03.547Z,22.47
2019-01-11T06:51:39.230Z,23.50
2019-01-11T06:52:14.972Z,23.17
2019-01-11T06:52:50.377Z,24.43
2019-01-11T06:53:26.112Z,22.33
2019-01-11T06:54:01.768Z,24.30
2019-01-11T06:54:37.224Z,23.43
2019-01-11T06:55:13.183Z,24.73
2019-01-11T06:55:48.871Z,23.07
2019-01-11T06:56:24.252Z,22.40
2019-01-11T06:56:59.711Z,24.10
2019-01-11T06:57:35.120Z,23.77
2019-01-11T06:58:10.885Z,23.87
2019-01-11T06:58:46.300Z,24.43
2019-01-11T06:59:21.694Z,22.73
2019-01-11T06:59:57.189Z,23.97
2019-01-11T07:00:32.605Z,24.20
2019-01-11T07:01:08.094Z,24.87
2019-01-11T07:01:43.591Z,24.03
2019-01-11T07:02:19.038Z,23.40
2019-01-11T07:02:54.438Z,23.63
2019-01-11T07:03:29.862Z,24.07
2019-01-11T07:04:05.437Z,24.80
2019-01-11T07:04:40.910Z,25.87
2019-01-11T07:05:16.360Z,25.50
2019-01-11T07:05:51.836Z,23.90
2019-01-11T07:06:27.402Z,23.33
2019-01-11T07:07:03.165Z,23.83
2019-01-11T07:07:38.888Z,25.67
2019-01-11T07:08:14.293Z,24.60
2019-01-11T07:08:49.776Z,25.03
2019-01-11T07:09:25.783Z,24.10
2019-01-11T07:10:01.253Z,24.37
2019-01-11T07:10:36.719Z,24.23
2019-01-11T07:11:12.142Z,23.23
2019-01-11T07:11:48.104Z,24.30
2019-01-11T07:12:23.793Z,23.53
2019-01-11T07:12:59.192Z,24.30
2019-01-11T07:13:34.918Z,23.93
2019-01-11T07:14:10.398Z,25.30
2019-01-11T07:14:46.065Z,23.87
2019-01-11T07:15:21.458Z,24.57
2019-01-11T07:15:57.134Z,25.30
2019-01-11T07:16:32.527Z,24.73
2019-01-11T07:17:08.095Z,25.40
2019-01-11T07:17:43.811Z,26.97
2019-01-11T07:18:19.445Z,24.43
2019-01-11T07:18:54.854Z,25.77
2019-01-11T07:19:30.535Z,25.87
2019-01-11T07:20:07.289Z,26.07
2019-01-11T07:20:43.206Z,26.53
2019-01-11T07:21:19.859Z,25.43
2019-01-11T07:21:55.265Z,25.90
2019-01-11T07:22:30.728Z,25.53
2019-01-11T07:23:06.420Z,25.63
2019-01-11T07:23:42.150Z,23.63
2019-01-11T07:24:17.544Z,24.90
2019-01-11T07:24:53.081Z,26.57
2019-01-11T07:25:28.483Z,25.10
2019-01-11T07:26:04.170Z,24.93
2019-01-11T07:26:39.620Z,23.77
2019-01-11T07:27:15.270Z,25.07
2019-01-11T07:27:56.208Z,25.80
2019-01-11T07:28:31.963Z,24.23
2019-01-11T07:29:07.457Z,26.60
2019-01-11T07:29:42.882Z,25.97
2019-01-11T07:30:18.247Z,26.03
2019-01-11T07:31:06.109Z,26.27
2019-01-11T07:31:45.481Z,24.40
2019-01-11T07:32:20.899Z,25.27
2019-01-11T07:32:56.331Z,25.80
2019-01-11T07:33:31.766Z,26.53
2019-01-11T07:34:07.555Z,26.87
2019-01-11T07:34:43.058Z,26.77
2019-01-11T07:35:18.994Z,26.47
2019-01-11T07:36:05.787Z,27.13
2019-01-11T07:36:44.896Z,25.83
2019-01-11T07:37:20.307Z,26.60
2019-01-11T07:37:55.995Z,26.43
2019-01-11T07:38:31.706Z,26.33
2019-01-11T07:39:41.374Z,27.03
2019-01-11T07:40:17.024Z,28.93
2019-01-11T07:40:53.053Z,27.33
2019-01-11T07:41:28.465Z,27.37
2019-01-11T07:42:04.162Z,28.17
2019-01-11T07:42:39.875Z,28.30
2019-01-11T07:43:15.290Z,28.57
2019-01-11T07:43:50.697Z,28.20
2019-01-11T07:44:26.950Z,29.53
2019-01-11T07:45:02.358Z,29.63
2019-01-11T07:45:37.785Z,30.20
2019-01-11T07:46:13.239Z,27.87
2019-01-11T07:46:49.178Z,29.83
2019-01-11T07:47:24.599Z,28.20
2019-01-11T07:48:00.337Z,26.73
2019-01-11T07:48:36.061Z,27.50
2019-01-11T07:49:11.762Z,27.57
2019-01-11T07:49:49.079Z,27.77
2019-01-11T07:50:24.673Z,27.93
2019-01-11T07:51:00.389Z,27.30
2019-01-11T07:51:36.340Z,26.83
2019-01-11T07:52:12.073Z,28.23
2019-01-11T07:52:47.499Z,28.83